HUX weather

Bahías de Huatulco International Airport
Huatulco, Oaxaca, Mexico

Public forecast

Using degrees Celsius for public forecast. Weather courtesy of forecast.io.

Current aviation weather report (METAR) for Bahías de Huatulco International Airport

Retrieved 2019/10/14 12:43 UTC (0 seconds ago):

MMBT 141243Z 00000KT 10SM SCT200 24/21 A2983 RMK 8/005

Aviation forecast (TAF) for Bahías de Huatulco International Airport

Forecast is more than 6 hours old.

Retrieved 2019/10/14 06:29 UTC (6 hours ago):

TAF MMBT 140422Z 1406/1506 30005KT 6SM HZ SCT200 FM142000 23010KT 6SM HZ SCT030 TEMPO 1422/1502 6SM -RA BKN030CB